sensor_id;sensor_type;location;lat;lon;timestamp;temperature;humidity
23618;DHT22;18207;32.078;34.818;2023-07-29T00:00:00;32.90;42.00
23618;DHT22;18207;32.078;34.818;2023-07-29T00:02:31;32.90;42.00
23618;DHT22;18207;32.078;34.818;2023-07-29T00:05:01;33.00;42.10
23618;DHT22;18207;32.078;34.818;2023-07-29T00:07:31;32.90;42.00
23618;DHT22;18207;32.078;34.818;2023-07-29T00:10:01;32.90;42.00
23618;DHT22;18207;32.078;34.818;2023-07-29T00:12:34;32.90;42.10
23618;DHT22;18207;32.078;34.818;2023-07-29T00:15:09;32.80;42.00
23618;DHT22;18207;32.078;34.818;2023-07-29T00:17:40;32.80;42.20
23618;DHT22;18207;32.078;34.818;2023-07-29T00:20:11;32.90;42.00
23618;DHT22;18207;32.078;34.818;2023-07-29T00:22:41;32.90;42.00
23618;DHT22;18207;32.078;34.818;2023-07-29T00:25:12;32.80;42.00
23618;DHT22;18207;32.078;34.818;2023-07-29T00:27:44;32.90;42.10
23618;DHT22;18207;32.078;34.818;2023-07-29T00:30:14;32.80;42.10
23618;DHT22;18207;32.078;34.818;2023-07-29T00:32:44;32.80;42.20
23618;DHT22;18207;32.078;34.818;2023-07-29T00:35:15;32.80;42.20
23618;DHT22;18207;32.078;34.818;2023-07-29T00:37:45;32.80;42.20
23618;DHT22;18207;32.078;34.818;2023-07-29T00:40:20;32.80;42.10
23618;DHT22;18207;32.078;34.818;2023-07-29T00:42:53;32.70;42.10
23618;DHT22;18207;32.078;34.818;2023-07-29T00:45:24;32.70;42.10
23618;DHT22;18207;32.078;34.818;2023-07-29T00:47:56;32.70;42.10
23618;DHT22;18207;32.078;34.818;2023-07-29T00:50:29;32.70;42.10
23618;DHT22;18207;32.078;34.818;2023-07-29T00:53:00;32.70;42.00
23618;DHT22;18207;32.078;34.818;2023-07-29T00:55:31;32.70;42.00
23618;DHT22;18207;32.078;34.818;2023-07-29T00:58:03;32.60;42.00
23618;DHT22;18207;32.078;34.818;2023-07-29T01:00:34;32.70;42.10
23618;DHT22;18207;32.078;34.818;2023-07-29T01:03:06;32.60;42.10
23618;DHT22;18207;32.078;34.818;2023-07-29T01:05:44;32.60;42.20
23618;DHT22;18207;32.078;34.818;2023-07-29T01:08:31;32.50;41.90
23618;DHT22;18207;32.078;34.818;2023-07-29T01:11:17;32.50;42.00
23618;DHT22;18207;32.078;34.818;2023-07-29T01:14:03;32.50;41.80
23618;DHT22;18207;32.078;34.818;2023-07-29T01:16:42;32.50;41.80
23618;DHT22;18207;32.078;34.818;2023-07-29T01:19:26;32.50;41.80
23618;DHT22;18207;32.078;34.818;2023-07-29T01:22:13;32.50;41.80
23618;DHT22;18207;32.078;34.818;2023-07-29T01:24:47;32.50;41.80
23618;DHT22;18207;32.078;34.818;2023-07-29T01:27:18;32.50;41.80
23618;DHT22;18207;32.078;34.818;2023-07-29T01:29:48;32.50;41.80
23618;DHT22;18207;32.078;34.818;2023-07-29T01:32:23;32.50;41.80
23618;DHT22;18207;32.078;34.818;2023-07-29T01:35:03;32.50;41.80
23618;DHT22;18207;32.078;34.818;2023-07-29T01:37:41;32.50;41.80
23618;DHT22;18207;32.078;34.818;2023-07-29T01:40:20;32.50;41.80
23618;DHT22;18207;32.078;34.818;2023-07-29T01:42:52;32.50;41.70
23618;DHT22;18207;32.078;34.818;2023-07-29T01:45:24;32.40;41.60
23618;DHT22;18207;32.078;34.818;2023-07-29T01:47:55;32.50;41.70
23618;DHT22;18207;32.078;34.818;2023-07-29T01:50:25;32.40;41.70
23618;DHT22;18207;32.078;34.818;2023-07-29T01:52:56;32.40;41.70
23618;DHT22;18207;32.078;34.818;2023-07-29T01:55:29;32.40;41.70
23618;DHT22;18207;32.078;34.818;2023-07-29T01:57:59;32.40;41.70
23618;DHT22;18207;32.078;34.818;2023-07-29T02:00:30;32.40;41.60
23618;DHT22;18207;32.078;34.818;2023-07-29T02:03:00;32.40;41.60
23618;DHT22;18207;32.078;34.818;2023-07-29T02:05:31;32.40;41.70
23618;DHT22;18207;32.078;34.818;2023-07-29T02:08:01;32.40;41.80
23618;DHT22;18207;32.078;34.818;2023-07-29T02:10:34;32.30;41.80
23618;DHT22;18207;32.078;34.818;2023-07-29T02:13:05;32.30;41.80
23618;DHT22;18207;32.078;34.818;2023-07-29T02:15:35;32.30;41.80
23618;DHT22;18207;32.078;34.818;2023-07-29T02:18:05;32.30;41.80
23618;DHT22;18207;32.078;34.818;2023-07-29T02:20:35;32.30;41.80
23618;DHT22;18207;32.078;34.818;2023-07-29T02:23:05;32.20;41.80
23618;DHT22;18207;32.078;34.818;2023-07-29T02:25:37;32.20;41.90
23618;DHT22;18207;32.078;34.818;2023-07-29T02:28:08;32.20;41.90
23618;DHT22;18207;32.078;34.818;2023-07-29T02:30:41;32.20;41.90
23618;DHT22;18207;32.078;34.818;2023-07-29T02:33:13;32.20;41.90
23618;DHT22;18207;32.078;34.818;2023-07-29T02:35:43;32.10;41.90
23618;DHT22;18207;32.078;34.818;2023-07-29T02:38:14;32.10;41.90
23618;DHT22;18207;32.078;34.818;2023-07-29T02:40:46;32.10;42.00
23618;DHT22;18207;32.078;34.818;2023-07-29T02:43:16;32.10;42.00
23618;DHT22;18207;32.078;34.818;2023-07-29T02:45:46;32.10;42.00
23618;DHT22;18207;32.078;34.818;2023-07-29T02:48:25;32.10;42.00
23618;DHT22;18207;32.078;34.818;2023-07-29T02:50:56;32.10;42.00
23618;DHT22;18207;32.078;34.818;2023-07-29T02:53:26;32.00;41.90
23618;DHT22;18207;32.078;34.818;2023-07-29T02:55:57;32.00;41.90
23618;DHT22;18207;32.078;34.818;2023-07-29T02:58:28;32.00;42.00
23618;DHT22;18207;32.078;34.818;2023-07-29T03:01:01;32.00;41.90
23618;DHT22;18207;32.078;34.818;2023-07-29T03:03:31;32.00;42.00
23618;DHT22;18207;32.078;34.818;2023-07-29T03:06:05;32.10;42.00
23618;DHT22;18207;32.078;34.818;2023-07-29T03:08:37;32.00;41.90
23618;DHT22;18207;32.078;34.818;2023-07-29T03:11:11;32.00;41.90
23618;DHT22;18207;32.078;34.818;2023-07-29T03:13:43;32.00;41.90
23618;DHT22;18207;32.078;34.818;2023-07-29T03:16:15;32.00;41.90
23618;DHT22;18207;32.078;34.818;2023-07-29T03:18:46;32.00;42.00
23618;DHT22;18207;32.078;34.818;2023-07-29T03:21:18;32.00;41.90
23618;DHT22;18207;32.078;34.818;2023-07-29T03:23:49;32.00;41.90
23618;DHT22;18207;32.078;34.818;2023-07-29T03:26:22;32.00;41.90
23618;DHT22;18207;32.078;34.818;2023-07-29T03:28:53;32.00;41.90
23618;DHT22;18207;32.078;34.818;2023-07-29T03:31:23;32.00;41.90
23618;DHT22;18207;32.078;34.818;2023-07-29T03:33:54;32.00;41.90
23618;DHT22;18207;32.078;34.818;2023-07-29T03:36:25;32.00;41.90
23618;DHT22;18207;32.078;34.818;2023-07-29T03:38:55;32.00;41.90
23618;DHT22;18207;32.078;34.818;2023-07-29T03:41:28;32.00;41.90
23618;DHT22;18207;32.078;34.818;2023-07-29T03:43:58;32.00;41.90
23618;DHT22;18207;32.078;34.818;2023-07-29T03:46:29;32.00;41.90
23618;DHT22;18207;32.078;34.818;2023-07-29T03:48:59;32.00;41.90
23618;DHT22;18207;32.078;34.818;2023-07-29T03:51:30;32.00;41.90
23618;DHT22;18207;32.078;34.818;2023-07-29T03:54:01;32.00;41.80
23618;DHT22;18207;32.078;34.818;2023-07-29T03:56:33;32.00;41.70
23618;DHT22;18207;32.078;34.818;2023-07-29T03:59:04;32.00;41.70
23618;DHT22;18207;32.078;34.818;2023-07-29T04:01:34;32.00;41.60
23618;DHT22;18207;32.078;34.818;2023-07-29T04:04:05;32.00;41.60
23618;DHT22;18207;32.078;34.818;2023-07-29T04:06:35;32.00;41.50
23618;DHT22;18207;32.078;34.818;2023-07-29T04:09:06;32.00;41.50
23618;DHT22;18207;32.078;34.818;2023-07-29T04:11:39;32.00;41.50
23618;DHT22;18207;32.078;34.818;2023-07-29T04:14:09;32.00;41.40
23618;DHT22;18207;32.078;34.818;2023-07-29T04:16:40;32.00;41.50
23618;DHT22;18207;32.078;34.818;2023-07-29T04:19:10;32.00;41.40
23618;DHT22;18207;32.078;34.818;2023-07-29T04:21:41;32.00;41.30
23618;DHT22;18207;32.078;34.818;2023-07-29T04:24:11;32.00;41.30
23618;DHT22;18207;32.078;34.818;2023-07-29T04:26:43;32.00;41.30
23618;DHT22;18207;32.078;34.818;2023-07-29T04:29:14;32.00;41.30
23618;DHT22;18207;32.078;34.818;2023-07-29T04:31:45;32.00;41.30
23618;DHT22;18207;32.078;34.818;2023-07-29T04:34:15;32.10;41.40
23618;DHT22;18207;32.078;34.818;2023-07-29T04:36:46;32.10;41.40
23618;DHT22;18207;32.078;34.818;2023-07-29T04:39:17;32.10;41.50
23618;DHT22;18207;32.078;34.818;2023-07-29T04:41:50;32.10;41.60
23618;DHT22;18207;32.078;34.818;2023-07-29T04:44:20;32.10;41.60
23618;DHT22;18207;32.078;34.818;2023-07-29T04:46:50;32.20;41.70
23618;DHT22;18207;32.078;34.818;2023-07-29T04:49:21;32.20;41.70
23618;DHT22;18207;32.078;34.818;2023-07-29T04:51:52;32.20;41.70
23618;DHT22;18207;32.078;34.818;2023-07-29T04:54:23;32.20;41.70
23618;DHT22;18207;32.078;34.818;2023-07-29T04:56:55;32.20;41.70
23618;DHT22;18207;32.078;34.818;2023-07-29T04:59:25;32.30;41.80
23618;DHT22;18207;32.078;34.818;2023-07-29T05:01:56;32.30;41.90
23618;DHT22;18207;32.078;34.818;2023-07-29T05:04:27;32.30;42.00
23618;DHT22;18207;32.078;34.818;2023-07-29T05:06:57;32.30;42.00
23618;DHT22;18207;32.078;34.818;2023-07-29T05:09:28;32.30;42.10
23618;DHT22;18207;32.078;34.818;2023-07-29T05:12:00;32.30;42.20
23618;DHT22;18207;32.078;34.818;2023-07-29T05:14:31;32.30;42.30
23618;DHT22;18207;32.078;34.818;2023-07-29T05:17:01;32.40;42.50
23618;DHT22;18207;32.078;34.818;2023-07-29T05:19:32;32.40;42.50
23618;DHT22;18207;32.078;34.818;2023-07-29T05:22:02;32.50;42.70
23618;DHT22;18207;32.078;34.818;2023-07-29T05:24:33;32.50;42.70
23618;DHT22;18207;32.078;34.818;2023-07-29T05:27:06;32.50;42.70
23618;DHT22;18207;32.078;34.818;2023-07-29T05:29:36;32.50;42.70
23618;DHT22;18207;32.078;34.818;2023-07-29T05:32:07;32.50;42.80
23618;DHT22;18207;32.078;34.818;2023-07-29T05:34:37;32.60;42.90
23618;DHT22;18207;32.078;34.818;2023-07-29T05:37:07;32.60;42.90
23618;DHT22;18207;32.078;34.818;2023-07-29T05:39:38;32.70;43.00
23618;DHT22;18207;32.078;34.818;2023-07-29T05:42:10;32.70;43.20
23618;DHT22;18207;32.078;34.818;2023-07-29T05:44:41;32.70;43.30
23618;DHT22;18207;32.078;34.818;2023-07-29T05:47:11;32.80;43.40
23618;DHT22;18207;32.078;34.818;2023-07-29T05:49:42;32.80;43.40
23618;DHT22;18207;32.078;34.818;2023-07-29T05:52:12;32.80;43.50
23618;DHT22;18207;32.078;34.818;2023-07-29T05:54:42;32.90;43.60
23618;DHT22;18207;32.078;34.818;2023-07-29T05:57:14;33.00;43.80
23618;DHT22;18207;32.078;34.818;2023-07-29T05:59:45;33.00;43.90
23618;DHT22;18207;32.078;34.818;2023-07-29T06:02:15;33.00;43.90
23618;DHT22;18207;32.078;34.818;2023-07-29T06:04:46;33.10;44.00
23618;DHT22;18207;32.078;34.818;2023-07-29T06:07:16;33.10;44.00
23618;DHT22;18207;32.078;34.818;2023-07-29T06:09:47;33.20;44.10
23618;DHT22;18207;32.078;34.818;2023-07-29T06:12:19;33.20;44.70
23618;DHT22;18207;32.078;34.818;2023-07-29T06:14:49;33.30;44.20
23618;DHT22;18207;32.078;34.818;2023-07-29T06:17:20;33.40;44.20
23618;DHT22;18207;32.078;34.818;2023-07-29T06:19:50;33.40;44.20
23618;DHT22;18207;32.078;34.818;2023-07-29T06:22:21;33.50;44.40
23618;DHT22;18207;32.078;34.818;2023-07-29T06:24:51;33.50;44.40
23618;DHT22;18207;32.078;34.818;2023-07-29T06:27:24;33.60;44.50
23618;DHT22;18207;32.078;34.818;2023-07-29T06:29:55;33.70;44.60
23618;DHT22;18207;32.078;34.818;2023-07-29T06:32:29;33.70;44.60
23618;DHT22;18207;32.078;34.818;2023-07-29T06:34:59;33.80;44.60
23618;DHT22;18207;32.078;34.818;2023-07-29T06:37:30;33.90;44.60
23618;DHT22;18207;32.078;34.818;2023-07-29T06:40:01;34.00;44.60
23618;DHT22;18207;32.078;34.818;2023-07-29T06:42:33;34.00;44.50
23618;DHT22;18207;32.078;34.818;2023-07-29T06:45:05;34.10;44.50
23618;DHT22;18207;32.078;34.818;2023-07-29T06:47:36;34.10;44.50
23618;DHT22;18207;32.078;34.818;2023-07-29T06:50:07;34.10;44.30
23618;DHT22;18207;32.078;34.818;2023-07-29T06:52:38;34.20;44.30
23618;DHT22;18207;32.078;34.818;2023-07-29T06:55:08;34.20;44.30
23618;DHT22;18207;32.078;34.818;2023-07-29T06:57:40;34.30;43.90
23618;DHT22;18207;32.078;34.818;2023-07-29T07:00:11;34.30;43.80
23618;DHT22;18207;32.078;34.818;2023-07-29T07:02:41;34.40;43.90
23618;DHT22;18207;32.078;34.818;2023-07-29T07:05:12;34.50;43.90
23618;DHT22;18207;32.078;34.818;2023-07-29T07:07:42;34.50;43.90
23618;DHT22;18207;32.078;34.818;2023-07-29T07:10:13;34.60;44.00
23618;DHT22;18207;32.078;34.818;2023-07-29T07:12:46;34.60;44.00
23618;DHT22;18207;32.078;34.818;2023-07-29T07:15:16;34.70;44.00
23618;DHT22;18207;32.078;34.818;2023-07-29T07:17:47;34.70;44.00
23618;DHT22;18207;32.078;34.818;2023-07-29T07:20:17;34.80;44.10
23618;DHT22;18207;32.078;34.818;2023-07-29T07:22:48;34.90;44.20
23618;DHT22;18207;32.078;34.818;2023-07-29T07:25:18;34.90;44.20
23618;DHT22;18207;32.078;34.818;2023-07-29T07:27:51;35.00;44.20
23618;DHT22;18207;32.078;34.818;2023-07-29T07:30:21;35.10;44.30
23618;DHT22;18207;32.078;34.818;2023-07-29T07:32:52;35.10;44.30
23618;DHT22;18207;32.078;34.818;2023-07-29T07:35:22;35.10;44.30
23618;DHT22;18207;32.078;34.818;2023-07-29T07:37:53;35.20;44.30
23618;DHT22;18207;32.078;34.818;2023-07-29T07:40:24;35.20;44.30
23618;DHT22;18207;32.078;34.818;2023-07-29T07:42:56;35.30;44.40
23618;DHT22;18207;32.078;34.818;2023-07-29T07:45:27;35.30;44.30
23618;DHT22;18207;32.078;34.818;2023-07-29T07:47:57;35.40;44.20
23618;DHT22;18207;32.078;34.818;2023-07-29T07:50:29;35.40;44.10
23618;DHT22;18207;32.078;34.818;2023-07-29T07:53:00;35.50;44.10
23618;DHT22;18207;32.078;34.818;2023-07-29T07:55:31;35.60;44.00
23618;DHT22;18207;32.078;34.818;2023-07-29T07:58:03;35.70;44.00
23618;DHT22;18207;32.078;34.818;2023-07-29T08:00:34;35.70;44.00
23618;DHT22;18207;32.078;34.818;2023-07-29T08:03:04;35.70;43.90
23618;DHT22;18207;32.078;34.818;2023-07-29T08:05:35;35.70;43.80
23618;DHT22;18207;32.078;34.818;2023-07-29T08:08:05;35.80;43.80
23618;DHT22;18207;32.078;34.818;2023-07-29T08:10:35;35.80;43.80
23618;DHT22;18207;32.078;34.818;2023-07-29T08:13:08;35.90;43.70
23618;DHT22;18207;32.078;34.818;2023-07-29T08:15:38;35.90;43.70
23618;DHT22;18207;32.078;34.818;2023-07-29T08:18:09;36.00;43.70
23618;DHT22;18207;32.078;34.818;2023-07-29T08:20:39;36.00;43.70
23618;DHT22;18207;32.078;34.818;2023-07-29T08:23:10;36.00;43.60
23618;DHT22;18207;32.078;34.818;2023-07-29T08:25:40;36.00;43.60
23618;DHT22;18207;32.078;34.818;2023-07-29T08:28:11;36.00;43.60
23618;DHT22;18207;32.078;34.818;2023-07-29T08:30:41;36.00;43.60
23618;DHT22;18207;32.078;34.818;2023-07-29T08:33:12;36.10;43.60
23618;DHT22;18207;32.078;34.818;2023-07-29T08:35:42;36.10;43.60
23618;DHT22;18207;32.078;34.818;2023-07-29T08:38:12;36.20;43.60
23618;DHT22;18207;32.078;34.818;2023-07-29T08:40:47;36.10;43.50
23618;DHT22;18207;32.078;34.818;2023-07-29T08:43:27;36.20;43.50
23618;DHT22;18207;32.078;34.818;2023-07-29T08:45:59;36.20;43.50
23618;DHT22;18207;32.078;34.818;2023-07-29T08:48:34;36.20;43.50
23618;DHT22;18207;32.078;34.818;2023-07-29T08:51:11;36.20;43.40
23618;DHT22;18207;32.078;34.818;2023-07-29T08:53:43;36.20;43.40
23618;DHT22;18207;32.078;34.818;2023-07-29T08:56:14;36.30;43.50
23618;DHT22;18207;32.078;34.818;2023-07-29T08:58:47;36.30;43.50
23618;DHT22;18207;32.078;34.818;2023-07-29T09:01:18;36.30;43.40
23618;DHT22;18207;32.078;34.818;2023-07-29T09:03:49;36.30;43.40
23618;DHT22;18207;32.078;34.818;2023-07-29T09:06:23;36.30;43.30
23618;DHT22;18207;32.078;34.818;2023-07-29T09:08:55;36.40;43.30
23618;DHT22;18207;32.078;34.818;2023-07-29T09:11:26;36.40;43.30
23618;DHT22;18207;32.078;34.818;2023-07-29T09:13:59;36.40;43.30
23618;DHT22;18207;32.078;34.818;2023-07-29T09:16:30;36.40;43.30
23618;DHT22;18207;32.078;34.818;2023-07-29T09:19:03;36.50;43.30
23618;DHT22;18207;32.078;34.818;2023-07-29T09:21:33;36.50;43.30
23618;DHT22;18207;32.078;34.818;2023-07-29T09:24:07;36.50;43.30
23618;DHT22;18207;32.078;34.818;2023-07-29T09:26:39;36.50;43.20
23618;DHT22;18207;32.078;34.818;2023-07-29T09:29:23;36.50;43.20
23618;DHT22;18207;32.078;34.818;2023-07-29T09:31:54;36.50;43.20
23618;DHT22;18207;32.078;34.818;2023-07-29T09:34:41;36.60;43.20
23618;DHT22;18207;32.078;34.818;2023-07-29T09:37:16;36.60;43.00
23618;DHT22;18207;32.078;34.818;2023-07-29T09:39:48;36.60;43.00
23618;DHT22;18207;32.078;34.818;2023-07-29T09:42:20;36.60;42.90
23618;DHT22;18207;32.078;34.818;2023-07-29T09:44:54;36.60;43.00
23618;DHT22;18207;32.078;34.818;2023-07-29T09:47:25;36.60;43.00
23618;DHT22;18207;32.078;34.818;2023-07-29T09:49:57;36.60;43.00
23618;DHT22;18207;32.078;34.818;2023-07-29T09:52:30;36.60;43.00
23618;DHT22;18207;32.078;34.818;2023-07-29T09:55:00;36.70;43.00
23618;DHT22;18207;32.078;34.818;2023-07-29T09:57:31;36.70;43.00
23618;DHT22;18207;32.078;34.818;2023-07-29T10:00:04;36.70;42.70
23618;DHT22;18207;32.078;34.818;2023-07-29T10:02:39;36.70;42.50
23618;DHT22;18207;32.078;34.818;2023-07-29T10:05:12;36.70;42.60
23618;DHT22;18207;32.078;34.818;2023-07-29T10:07:43;36.70;42.60
23618;DHT22;18207;32.078;34.818;2023-07-29T10:10:17;36.70;42.70
23618;DHT22;18207;32.078;34.818;2023-07-29T10:12:47;36.70;42.70
23618;DHT22;18207;32.078;34.818;2023-07-29T10:15:21;36.70;42.70
23618;DHT22;18207;32.078;34.818;2023-07-29T10:17:52;36.70;42.70
23618;DHT22;18207;32.078;34.818;2023-07-29T10:20:23;36.70;42.70
23618;DHT22;18207;32.078;34.818;2023-07-29T10:22:56;36.70;42.70
23618;DHT22;18207;32.078;34.818;2023-07-29T10:25:37;36.70;42.70
23618;DHT22;18207;32.078;34.818;2023-07-29T10:28:11;36.80;42.80
23618;DHT22;18207;32.078;34.818;2023-07-29T10:30:48;36.70;42.70
23618;DHT22;18207;32.078;34.818;2023-07-29T10:33:19;36.80;42.80
23618;DHT22;18207;32.078;34.818;2023-07-29T10:35:52;36.80;42.80
23618;DHT22;18207;32.078;34.818;2023-07-29T10:38:24;36.80;42.80
23618;DHT22;18207;32.078;34.818;2023-07-29T10:40:56;36.80;42.70
23618;DHT22;18207;32.078;34.818;2023-07-29T10:43:33;36.80;42.60
23618;DHT22;18207;32.078;34.818;2023-07-29T10:46:30;36.80;42.60
23618;DHT22;18207;32.078;34.818;2023-07-29T10:49:05;36.80;42.60
23618;DHT22;18207;32.078;34.818;2023-07-29T10:51:37;36.80;42.70
23618;DHT22;18207;32.078;34.818;2023-07-29T10:54:11;36.80;42.60
23618;DHT22;18207;32.078;34.818;2023-07-29T10:56:47;36.80;42.60
23618;DHT22;18207;32.078;34.818;2023-07-29T10:59:32;36.80;42.60
23618;DHT22;18207;32.078;34.818;2023-07-29T11:02:15;36.90;42.70
23618;DHT22;18207;32.078;34.818;2023-07-29T11:04:57;36.80;42.60
23618;DHT22;18207;32.078;34.818;2023-07-29T11:07:28;36.80;42.60
23618;DHT22;18207;32.078;34.818;2023-07-29T11:10:02;36.80;42.60
23618;DHT22;18207;32.078;34.818;2023-07-29T11:12:52;36.80;42.60
23618;DHT22;18207;32.078;34.818;2023-07-29T11:15:23;36.80;42.60
23618;DHT22;18207;32.078;34.818;2023-07-29T11:17:59;36.80;42.60
23618;DHT22;18207;32.078;34.818;2023-07-29T11:20:32;36.80;42.60
23618;DHT22;18207;32.078;34.818;2023-07-29T11:23:03;36.80;42.70
23618;DHT22;18207;32.078;34.818;2023-07-29T11:25:46;36.80;42.80
23618;DHT22;18207;32.078;34.818;2023-07-29T11:28:19;36.80;42.80
23618;DHT22;18207;32.078;34.818;2023-07-29T11:30:50;36.70;42.80
23618;DHT22;18207;32.078;34.818;2023-07-29T11:33:24;36.80;42.90
23618;DHT22;18207;32.078;34.818;2023-07-29T11:35:56;36.80;43.00
23618;DHT22;18207;32.078;34.818;2023-07-29T11:38:26;36.80;42.90
23618;DHT22;18207;32.078;34.818;2023-07-29T11:41:00;36.80;43.00
23618;DHT22;18207;32.078;34.818;2023-07-29T11:43:35;36.80;43.00
23618;DHT22;18207;32.078;34.818;2023-07-29T11:46:05;36.70;42.90
23618;DHT22;18207;32.078;34.818;2023-07-29T11:48:38;36.70;43.00
23618;DHT22;18207;32.078;34.818;2023-07-29T11:51:08;36.70;43.20
23618;DHT22;18207;32.078;34.818;2023-07-29T11:53:39;36.60;42.90
23618;DHT22;18207;32.078;34.818;2023-07-29T11:56:12;36.70;43.00
23618;DHT22;18207;32.078;34.818;2023-07-29T11:58:42;36.70;43.00
23618;DHT22;18207;32.078;34.818;2023-07-29T12:01:13;36.70;43.10
23618;DHT22;18207;32.078;34.818;2023-07-29T12:03:46;36.60;43.00
23618;DHT22;18207;32.078;34.818;2023-07-29T12:06:17;36.70;43.10
23618;DHT22;18207;32.078;34.818;2023-07-29T12:08:48;36.60;43.10
23618;DHT22;18207;32.078;34.818;2023-07-29T12:11:20;36.60;43.20
23618;DHT22;18207;32.078;34.818;2023-07-29T12:13:53;36.60;43.30
23618;DHT22;18207;32.078;34.818;2023-07-29T12:16:24;36.50;43.20
23618;DHT22;18207;32.078;34.818;2023-07-29T12:19:00;36.50;43.30
23618;DHT22;18207;32.078;34.818;2023-07-29T12:21:30;36.50;43.30
23618;DHT22;18207;32.078;34.818;2023-07-29T12:24:03;36.50;43.30
23618;DHT22;18207;32.078;34.818;2023-07-29T12:26:35;36.50;43.30
23618;DHT22;18207;32.078;34.818;2023-07-29T12:29:12;36.50;43.40
23618;DHT22;18207;32.078;34.818;2023-07-29T12:31:42;36.50;43.40
23618;DHT22;18207;32.078;34.818;2023-07-29T12:34:19;36.40;43.40
23618;DHT22;18207;32.078;34.818;2023-07-29T12:36:51;36.40;43.50
23618;DHT22;18207;32.078;34.818;2023-07-29T12:39:25;36.40;43.50
23618;DHT22;18207;32.078;34.818;2023-07-29T12:41:57;36.40;43.50
23618;DHT22;18207;32.078;34.818;2023-07-29T12:44:30;36.40;43.50
23618;DHT22;18207;32.078;34.818;2023-07-29T12:47:03;36.40;43.40
23618;DHT22;18207;32.078;34.818;2023-07-29T12:49:36;36.40;43.40
23618;DHT22;18207;32.078;34.818;2023-07-29T12:52:07;36.30;43.30
23618;DHT22;18207;32.078;34.818;2023-07-29T12:54:37;36.30;43.30
23618;DHT22;18207;32.078;34.818;2023-07-29T12:57:07;36.40;43.50
23618;DHT22;18207;32.078;34.818;2023-07-29T12:59:37;36.30;43.80
23618;DHT22;18207;32.078;34.818;2023-07-29T13:02:08;36.30;43.50
23618;DHT22;18207;32.078;34.818;2023-07-29T13:04:40;36.20;43.40
23618;DHT22;18207;32.078;34.818;2023-07-29T13:07:11;36.20;43.40
23618;DHT22;18207;32.078;34.818;2023-07-29T13:09:42;36.20;43.40
23618;DHT22;18207;32.078;34.818;2023-07-29T13:12:12;36.10;43.40
23618;DHT22;18207;32.078;34.818;2023-07-29T13:14:43;36.10;43.50
23618;DHT22;18207;32.078;34.818;2023-07-29T13:17:13;36.10;43.60
23618;DHT22;18207;32.078;34.818;2023-07-29T13:19:44;36.00;43.60
23618;DHT22;18207;32.078;34.818;2023-07-29T13:22:15;36.00;43.60
23618;DHT22;18207;32.078;34.818;2023-07-29T13:24:46;36.00;43.60
23618;DHT22;18207;32.078;34.818;2023-07-29T13:27:16;36.00;43.60
23618;DHT22;18207;32.078;34.818;2023-07-29T13:29:47;36.00;43.70
23618;DHT22;18207;32.078;34.818;2023-07-29T13:32:16;36.00;43.80
23618;DHT22;18207;32.078;34.818;2023-07-29T13:34:49;35.90;43.70
23618;DHT22;18207;32.078;34.818;2023-07-29T13:37:19;35.90;43.80
23618;DHT22;18207;32.078;34.818;2023-07-29T13:39:50;35.90;43.80
23618;DHT22;18207;32.078;34.818;2023-07-29T13:42:21;35.80;43.70
23618;DHT22;18207;32.078;34.818;2023-07-29T13:44:51;35.80;43.70
23618;DHT22;18207;32.078;34.818;2023-07-29T13:47:22;35.80;43.80
23618;DHT22;18207;32.078;34.818;2023-07-29T13:49:53;35.80;43.90
23618;DHT22;18207;32.078;34.818;2023-07-29T13:52:23;35.70;43.90
23618;DHT22;18207;32.078;34.818;2023-07-29T13:54:53;35.70;43.80
23618;DHT22;18207;32.078;34.818;2023-07-29T13:57:24;35.70;43.90
23618;DHT22;18207;32.078;34.818;2023-07-29T13:59:55;35.60;43.80
23618;DHT22;18207;32.078;34.818;2023-07-29T14:02:25;35.60;43.80
23618;DHT22;18207;32.078;34.818;2023-07-29T14:04:58;35.60;43.90
23618;DHT22;18207;32.078;34.818;2023-07-29T14:07:29;35.60;43.90
23618;DHT22;18207;32.078;34.818;2023-07-29T14:09:59;35.50;43.90
23618;DHT22;18207;32.078;34.818;2023-07-29T14:12:29;35.50;44.00
23618;DHT22;18207;32.078;34.818;2023-07-29T14:15:00;35.50;44.10
23618;DHT22;18207;32.078;34.818;2023-07-29T14:17:31;35.50;44.00
23618;DHT22;18207;32.078;34.818;2023-07-29T14:20:04;35.50;44.10
23618;DHT22;18207;32.078;34.818;2023-07-29T14:22:36;35.40;44.10
23618;DHT22;18207;32.078;34.818;2023-07-29T14:25:07;35.40;44.10
23618;DHT22;18207;32.078;34.818;2023-07-29T14:27:37;35.30;44.20
23618;DHT22;18207;32.078;34.818;2023-07-29T14:30:08;35.30;44.20
23618;DHT22;18207;32.078;34.818;2023-07-29T14:32:39;35.30;44.10
23618;DHT22;18207;32.078;34.818;2023-07-29T14:35:11;35.30;44.10
23618;DHT22;18207;32.078;34.818;2023-07-29T14:37:41;35.30;44.00
23618;DHT22;18207;32.078;34.818;2023-07-29T14:40:11;35.20;44.10
23618;DHT22;18207;32.078;34.818;2023-07-29T14:42:41;35.20;44.00
23618;DHT22;18207;32.078;34.818;2023-07-29T14:45:12;35.20;44.10
23618;DHT22;18207;32.078;34.818;2023-07-29T14:47:42;35.10;44.00
23618;DHT22;18207;32.078;34.818;2023-07-29T14:50:18;35.20;44.20
23618;DHT22;18207;32.078;34.818;2023-07-29T14:52:51;35.10;44.10
23618;DHT22;18207;32.078;34.818;2023-07-29T14:55:23;35.10;44.00
23618;DHT22;18207;32.078;34.818;2023-07-29T14:57:53;35.10;44.00
23618;DHT22;18207;32.078;34.818;2023-07-29T15:00:24;35.10;44.00
23618;DHT22;18207;32.078;34.818;2023-07-29T15:02:55;35.00;44.10
23618;DHT22;18207;32.078;34.818;2023-07-29T15:05:27;35.00;44.30
23618;DHT22;18207;32.078;34.818;2023-07-29T15:07:58;35.00;44.20
23618;DHT22;18207;32.078;34.818;2023-07-29T15:10:28;35.00;44.20
23618;DHT22;18207;32.078;34.818;2023-07-29T15:12:58;35.00;44.20
23618;DHT22;18207;32.078;34.818;2023-07-29T15:15:29;35.00;44.30
23618;DHT22;18207;32.078;34.818;2023-07-29T15:18:00;34.90;44.20
23618;DHT22;18207;32.078;34.818;2023-07-29T15:20:32;34.90;44.20
23618;DHT22;18207;32.078;34.818;2023-07-29T15:23:03;34.90;44.20
23618;DHT22;18207;32.078;34.818;2023-07-29T15:25:33;34.90;44.20
23618;DHT22;18207;32.078;34.818;2023-07-29T15:28:04;34.90;44.30
23618;DHT22;18207;32.078;34.818;2023-07-29T15:30:35;34.90;44.30
23618;DHT22;18207;32.078;34.818;2023-07-29T15:33:10;34.80;44.20
23618;DHT22;18207;32.078;34.818;2023-07-29T15:35:41;34.80;44.20
23618;DHT22;18207;32.078;34.818;2023-07-29T15:38:12;34.80;44.30
23618;DHT22;18207;32.078;34.818;2023-07-29T15:40:42;34.80;44.30
23618;DHT22;18207;32.078;34.818;2023-07-29T15:43:13;34.70;44.20